createdAt,value
2022-08-14T00:00:36.879Z,36.45
2022-08-14T00:03:40.803Z,36.71
2022-08-14T00:06:43.045Z,36.59
2022-08-14T00:09:55.457Z,36.55
2022-08-14T00:13:06.822Z,36.81
2022-08-14T00:16:14.152Z,36.57
2022-08-14T00:19:35.741Z,36.88
2022-08-14T00:22:56.207Z,36.92
2022-08-14T00:26:06.455Z,36.86
2022-08-14T00:29:10.052Z,36.97
2022-08-14T00:33:01.689Z,37.24
2022-08-14T00:36:37.694Z,37.18
2022-08-14T00:38:57.037Z,37.07
2022-08-14T00:41:58.754Z,37.12
2022-08-14T00:45:00.360Z,37.30
2022-08-14T00:48:02.476Z,37.42
2022-08-14T00:51:06.753Z,37.19
2022-08-14T00:54:16.703Z,37.31
2022-08-14T00:57:29.562Z,37.22
2022-08-14T01:00:37.385Z,37.17
2022-08-14T01:03:52.817Z,37.46
2022-08-14T01:06:55.548Z,37.63
2022-08-14T01:09:59.133Z,37.51
2022-08-14T01:13:01.457Z,37.48
2022-08-14T01:16:08.001Z,37.50
2022-08-14T01:19:28.713Z,37.44
2022-08-14T01:22:30.329Z,37.65
2022-08-14T01:25:33.272Z,37.78
2022-08-14T01:28:56.174Z,37.77
2022-08-14T01:32:01.797Z,37.88
2022-08-14T01:35:19.830Z,37.75
2022-08-14T01:38:34.404Z,37.80
2022-08-14T01:41:40.405Z,37.66
2022-08-14T01:44:43.165Z,37.67
2022-08-14T01:47:51.553Z,37.81
2022-08-14T01:50:53.119Z,37.90
2022-08-14T01:54:22.137Z,38.00
2022-08-14T01:57:24.782Z,38.04
2022-08-14T02:00:38.959Z,38.04
2022-08-14T02:03:41.288Z,38.15
2022-08-14T02:06:54.184Z,38.14
2022-08-14T02:09:56.213Z,38.28
2022-08-14T02:12:59.583Z,38.37
2022-08-14T02:16:01.255Z,38.13
2022-08-14T02:19:27.401Z,38.21
2022-08-14T02:22:33.982Z,38.48
2022-08-14T02:25:36.132Z,38.57
2022-08-14T02:28:57.547Z,38.22
2022-08-14T02:32:01.036Z,38.47
2022-08-14T02:35:06.836Z,38.43
2022-08-14T02:38:11.820Z,38.88
2022-08-14T02:41:30.346Z,38.51
2022-08-14T02:44:40.325Z,38.90
2022-08-14T02:47:41.940Z,38.96
2022-08-14T02:50:51.372Z,38.76
2022-08-14T02:53:54.856Z,38.91
2022-08-14T02:57:16.737Z,39.14
2022-08-14T03:00:19.916Z,39.13
2022-08-14T03:03:23.930Z,39.27
2022-08-14T03:06:49.030Z,38.84
2022-08-14T03:10:25.205Z,38.91
2022-08-14T03:13:13.809Z,38.79
2022-08-14T03:16:26.878Z,39.04
2022-08-14T03:19:28.769Z,39.32
2022-08-14T03:22:30.408Z,39.22
2022-08-14T03:25:37.378Z,39.27
2022-08-14T03:28:41.376Z,39.44
2022-08-14T03:31:44.137Z,39.04
2022-08-14T03:34:55.468Z,39.34
2022-08-14T03:39:11.905Z,39.29
2022-08-14T03:41:33.389Z,39.48
2022-08-14T03:45:19.257Z,39.40
2022-08-14T03:47:58.655Z,39.59
2022-08-14T03:51:01.438Z,39.50
2022-08-14T03:54:08.345Z,39.45
2022-08-14T03:57:12.623Z,39.49
2022-08-14T04:00:43.108Z,39.87
2022-08-14T04:03:37.397Z,39.49
2022-08-14T04:06:45.224Z,39.66
2022-08-14T04:09:50.285Z,39.88
2022-08-14T04:12:55.797Z,39.81
2022-08-14T04:16:02.447Z,40.21
2022-08-14T04:19:08.646Z,40.30
2022-08-14T04:22:10.185Z,40.29
2022-08-14T04:25:13.319Z,39.99
2022-08-14T04:29:07.604Z,40.31
2022-08-14T04:33:00.412Z,40.13
2022-08-14T04:35:01.669Z,40.42
2022-08-14T04:38:37.183Z,40.63
2022-08-14T04:41:58.361Z,40.72
2022-08-14T04:45:01.293Z,40.57
2022-08-14T04:48:39.268Z,40.45
2022-08-14T04:51:46.990Z,40.62
2022-08-14T04:54:57.947Z,40.77
2022-08-14T04:57:59.636Z,40.67
2022-08-14T05:01:12.830Z,40.98
2022-08-14T05:04:21.794Z,40.90
2022-08-14T05:07:46.942Z,41.02
2022-08-14T05:10:52.000Z,40.99
2022-08-14T05:14:34.456Z,41.15
2022-08-14T05:17:18.300Z,40.87
2022-08-14T05:21:57.919Z,41.23
2022-08-14T05:23:42.274Z,41.12
2022-08-14T05:26:48.058Z,40.78
2022-08-14T05:29:50.482Z,41.20
2022-08-14T05:32:52.342Z,41.07
2022-08-14T05:36:01.158Z,41.13
2022-08-14T05:39:04.321Z,40.92
2022-08-14T05:42:10.181Z,40.96
2022-08-14T05:45:24.157Z,41.05
2022-08-14T05:48:33.701Z,41.03
2022-08-14T05:51:38.796Z,41.07
2022-08-14T05:54:40.428Z,40.68
2022-08-14T05:57:54.469Z,40.83
2022-08-14T06:00:57.485Z,40.95
2022-08-14T06:03:59.200Z,40.87
2022-08-14T06:07:00.801Z,41.03
2022-08-14T06:10:06.217Z,40.68
2022-08-14T06:13:07.950Z,41.00
2022-08-14T06:16:11.205Z,40.85
2022-08-14T06:19:15.548Z,41.00
2022-08-14T06:22:20.494Z,40.95
2022-08-14T06:25:25.076Z,40.84
2022-08-14T06:28:28.398Z,41.09
2022-08-14T06:31:30.306Z,40.92
2022-08-14T06:35:10.329Z,40.91
2022-08-14T06:37:56.829Z,41.00
2022-08-14T06:40:58.712Z,40.92
2022-08-14T06:44:00.326Z,40.78
2022-08-14T06:47:05.389Z,40.68
2022-08-14T06:50:10.456Z,40.90
2022-08-14T06:53:14.678Z,40.82
2022-08-14T06:56:16.736Z,40.89
2022-08-14T06:59:19.637Z,40.71
2022-08-14T07:02:43.584Z,40.97
2022-08-14T07:05:55.922Z,40.78
2022-08-14T07:08:59.958Z,40.93
2022-08-14T07:12:01.729Z,40.82
2022-08-14T07:15:05.067Z,40.69
2022-08-14T07:18:08.839Z,41.01
2022-08-14T07:21:10.771Z,40.83
2022-08-14T07:24:21.770Z,40.88
2022-08-14T07:27:28.266Z,40.81
2022-08-14T07:30:35.506Z,40.80
2022-08-14T07:33:37.040Z,40.98
2022-08-14T07:36:38.618Z,40.83
2022-08-14T07:40:01.650Z,40.73
2022-08-14T07:43:14.399Z,40.80
2022-08-14T07:46:21.399Z,40.97
2022-08-14T07:49:33.210Z,40.84
2022-08-14T07:52:35.052Z,40.96
2022-08-14T07:55:37.659Z,40.71
2022-08-14T07:58:51.548Z,40.85
2022-08-14T08:01:53.628Z,40.82
2022-08-14T08:05:00.652Z,40.93
2022-08-14T08:08:03.783Z,40.93
2022-08-14T08:11:14.976Z,41.00
2022-08-14T08:14:18.224Z,40.72
2022-08-14T08:17:20.502Z,40.89
2022-08-14T08:20:27.263Z,40.72
2022-08-14T08:23:40.069Z,40.76
2022-08-14T08:26:45.137Z,40.55
2022-08-14T08:29:50.970Z,40.73
2022-08-14T08:32:55.270Z,40.99
2022-08-14T08:36:03.496Z,40.64
2022-08-14T08:39:17.065Z,40.51
2022-08-14T08:42:31.222Z,40.48
2022-08-14T08:45:39.777Z,40.90
2022-08-14T08:48:53.949Z,40.62
2022-08-14T08:52:04.358Z,40.44
2022-08-14T08:55:06.573Z,40.69
2022-08-14T08:58:20.277Z,40.45
2022-08-14T09:01:33.504Z,40.79
2022-08-14T09:04:45.221Z,40.65
2022-08-14T09:07:56.650Z,40.77
2022-08-14T09:10:59.652Z,40.88
2022-08-14T09:14:02.433Z,40.80
2022-08-14T09:17:07.144Z,40.29
2022-08-14T09:20:11.910Z,40.51
2022-08-14T09:23:16.842Z,40.56
2022-08-14T09:26:21.098Z,40.75
2022-08-14T09:29:23.752Z,40.62
2022-08-14T09:32:59.091Z,40.32
2022-08-14T09:36:18.472Z,40.37
2022-08-14T09:39:55.832Z,40.33
2022-08-14T09:43:07.482Z,40.69
2022-08-14T09:46:09.649Z,40.42
2022-08-14T09:49:16.724Z,40.34
2022-08-14T09:52:23.791Z,40.03
2022-08-14T09:55:42.608Z,40.52
2022-08-14T09:58:47.362Z,40.36
2022-08-14T10:01:53.099Z,40.40
2022-08-14T10:05:10.209Z,40.03
2022-08-14T10:08:26.487Z,39.57
2022-08-14T10:11:37.911Z,39.79
2022-08-14T10:14:45.095Z,39.51
2022-08-14T10:18:08.056Z,39.37
2022-08-14T10:21:18.069Z,39.36
2022-08-14T10:24:37.299Z,39.58
2022-08-14T10:27:39.430Z,39.38
2022-08-14T10:30:42.904Z,39.39
2022-08-14T10:33:50.806Z,39.55
2022-08-14T10:37:04.011Z,39.07
2022-08-14T10:40:37.385Z,39.10
2022-08-14T10:43:42.480Z,38.82
2022-08-14T10:47:39.329Z,38.86
2022-08-14T10:50:15.858Z,38.57
2022-08-14T10:53:29.730Z,38.64
2022-08-14T10:56:35.775Z,38.63
2022-08-14T11:00:14.377Z,38.44
2022-08-14T11:03:35.714Z,38.39
2022-08-14T11:06:53.056Z,38.40
2022-08-14T11:10:04.811Z,38.23
2022-08-14T11:13:07.285Z,38.18
2022-08-14T11:16:09.825Z,38.05
2022-08-14T11:19:13.634Z,37.91
2022-08-14T11:22:55.729Z,37.80
2022-08-14T11:25:53.588Z,37.79
2022-08-14T11:28:57.489Z,37.89
2022-08-14T11:32:02.354Z,37.56
2022-08-14T11:35:04.356Z,37.80
2022-08-14T11:38:08.423Z,37.28
2022-08-14T11:41:11.449Z,37.54
2022-08-14T11:44:13.276Z,37.52
2022-08-14T11:47:20.700Z,36.96
2022-08-14T11:50:37.230Z,37.02
2022-08-14T11:53:42.332Z,37.00
2022-08-14T11:56:46.136Z,36.85
2022-08-14T11:59:47.947Z,37.11
2022-08-14T12:03:02.576Z,36.76
2022-08-14T12:06:28.982Z,37.10
2022-08-14T12:09:38.685Z,36.80
2022-08-14T12:12:45.045Z,36.38
2022-08-14T12:16:06.614Z,36.45
2022-08-14T12:19:12.942Z,36.62
2022-08-14T12:22:29.443Z,36.45
2022-08-14T12:25:34.937Z,36.42
2022-08-14T12:28:59.715Z,36.53
2022-08-14T12:32:06.677Z,36.56
2022-08-14T12:35:11.225Z,36.51
2022-08-14T12:38:19.504Z,36.12
2022-08-14T12:41:28.228Z,36.01
2022-08-14T12:44:42.976Z,35.88
2022-08-14T12:47:45.592Z,36.15
2022-08-14T12:50:53.307Z,36.08
2022-08-14T12:53:59.617Z,36.20
2022-08-14T12:57:08.288Z,35.97
2022-08-14T13:00:22.939Z,36.16
2022-08-14T13:03:27.989Z,35.91
2022-08-14T13:06:29.960Z,36.09
2022-08-14T13:09:36.612Z,35.94
2022-08-14T13:13:02.942Z,35.52
2022-08-14T13:16:05.287Z,36.04
2022-08-14T13:19:24.352Z,35.64
2022-08-14T13:22:33.385Z,35.85
2022-08-14T13:25:37.748Z,35.41
2022-08-14T13:29:02.754Z,35.19
2022-08-14T13:32:05.839Z,35.81
2022-08-14T13:35:11.037Z,35.96
2022-08-14T13:38:25.605Z,35.43
2022-08-14T13:41:36.109Z,35.55
2022-08-14T13:44:42.581Z,35.70
2022-08-14T13:47:46.657Z,35.22
2022-08-14T13:50:55.420Z,35.37
2022-08-14T13:54:10.957Z,35.00
2022-08-14T13:57:17.739Z,34.89
2022-08-14T14:00:32.522Z,35.00
2022-08-14T14:03:38.191Z,34.80
2022-08-14T14:06:40.776Z,35.14
2022-08-14T14:09:52.703Z,35.08
2022-08-14T14:12:56.161Z,35.08
2022-08-14T14:16:03.799Z,34.86
2022-08-14T14:19:09.379Z,34.46
2022-08-14T14:22:13.423Z,34.33
2022-08-14T14:25:45.921Z,34.80
2022-08-14T14:28:57.119Z,34.51
2022-08-14T14:32:00.438Z,34.50
2022-08-14T14:35:02.945Z,34.63
2022-08-14T14:38:07.020Z,34.14
2022-08-14T14:41:10.594Z,34.14
2022-08-14T14:44:15.936Z,34.39
2022-08-14T14:47:22.528Z,34.66
2022-08-14T14:50:25.003Z,34.58
2022-08-14T14:53:28.605Z,34.60
2022-08-14T14:56:47.418Z,34.17
2022-08-14T14:59:53.799Z,34.52
2022-08-14T15:02:57.831Z,34.35
2022-08-14T15:06:02.179Z,34.27
2022-08-14T15:09:08.886Z,34.25
2022-08-14T15:12:27.930Z,34.42
2022-08-14T15:15:37.808Z,34.06
2022-08-14T15:18:46.917Z,34.12
2022-08-14T15:21:51.167Z,34.52
2022-08-14T15:24:53.110Z,33.99
2022-08-14T15:27:56.317Z,34.44
2022-08-14T15:30:59.204Z,34.35
2022-08-14T15:34:43.957Z,34.36
2022-08-14T15:37:42.233Z,34.37
2022-08-14T15:40:44.264Z,34.22
2022-08-14T15:43:54.301Z,34.36
2022-08-14T15:46:59.916Z,33.64
2022-08-14T15:50:08.689Z,33.63
2022-08-14T15:53:12.280Z,34.09
2022-08-14T15:56:20.858Z,33.68
2022-08-14T15:59:58.539Z,33.66
2022-08-14T16:03:00.725Z,33.49
2022-08-14T16:06:11.078Z,33.54
2022-08-14T16:09:17.412Z,34.02
2022-08-14T16:12:20.317Z,33.93
2022-08-14T16:15:45.369Z,33.77
2022-08-14T16:18:59.007Z,33.79
2022-08-14T16:25:34.478Z,33.42
2022-08-14T16:28:37.209Z,33.55
2022-08-14T16:31:39.936Z,33.41
2022-08-14T16:34:49.143Z,33.07
2022-08-14T16:37:56.568Z,33.45
2022-08-14T16:40:25.176Z,33.81
2022-08-14T16:41:23.337Z,33.63
2022-08-14T16:44:41.077Z,33.33
2022-08-14T16:47:47.872Z,33.57
2022-08-14T16:50:52.455Z,33.37
2022-08-14T16:53:54.656Z,33.09
2022-08-14T16:57:12.794Z,33.19
2022-08-14T17:00:43.920Z,33.60
2022-08-14T17:03:53.145Z,33.27
2022-08-14T17:06:57.471Z,33.10
2022-08-14T17:10:09.702Z,33.26
2022-08-14T17:13:59.738Z,33.32
2022-08-14T17:16:56.426Z,33.03
2022-08-14T17:20:02.273Z,33.03
2022-08-14T17:23:11.345Z,33.23
2022-08-14T17:26:45.651Z,33.17
2022-08-14T17:33:23.164Z,33.20
2022-08-14T17:36:26.529Z,33.05
2022-08-14T17:39:40.220Z,33.11
2022-08-14T17:42:55.713Z,33.16
2022-08-14T17:46:04.913Z,33.28
2022-08-14T17:49:16.255Z,33.13
2022-08-14T17:52:34.106Z,33.30
2022-08-14T17:56:01.781Z,33.58
2022-08-14T17:59:05.740Z,33.25
2022-08-14T18:02:09.683Z,33.42
2022-08-14T18:05:23.764Z,33.45
2022-08-14T18:08:43.734Z,33.62
2022-08-14T18:11:46.733Z,33.67
2022-08-14T18:14:52.910Z,33.27
2022-08-14T18:17:58.047Z,33.14
2022-08-14T18:21:42.319Z,33.45
2022-08-14T18:24:29.455Z,33.41
2022-08-14T18:27:42.075Z,33.47
2022-08-14T18:30:58.719Z,33.55
2022-08-14T18:34:32.022Z,33.31
2022-08-14T18:37:36.611Z,33.60
2022-08-14T18:40:40.556Z,33.75
2022-08-14T18:43:58.945Z,33.91
2022-08-14T18:47:15.992Z,33.55
2022-08-14T18:50:27.480Z,34.02
2022-08-14T18:53:59.454Z,33.87
2022-08-14T18:57:03.818Z,33.89
2022-08-14T19:00:32.808Z,33.91
2022-08-14T19:03:36.461Z,33.99
2022-08-14T19:06:55.980Z,33.95
2022-08-14T19:10:03.516Z,34.05
2022-08-14T19:13:12.382Z,33.91
2022-08-14T19:16:22.814Z,33.86
2022-08-14T19:19:38.257Z,33.87
2022-08-14T19:22:41.309Z,33.87
2022-08-14T19:25:54.313Z,34.12
2022-08-14T19:28:56.554Z,33.99
2022-08-14T19:32:02.997Z,34.11
2022-08-14T19:35:49.501Z,33.86
2022-08-14T19:39:00.108Z,34.34
2022-08-14T19:42:03.323Z,34.20
2022-08-14T19:45:15.379Z,34.46
2022-08-14T19:48:16.937Z,34.35
2022-08-14T19:51:18.693Z,34.01
2022-08-14T19:54:34.880Z,34.34
2022-08-14T19:57:36.850Z,34.23
2022-08-14T20:00:52.762Z,34.06
2022-08-14T20:03:59.908Z,34.22
2022-08-14T20:07:06.431Z,34.70
2022-08-14T20:11:08.261Z,34.69
2022-08-14T20:14:10.341Z,34.97
2022-08-14T20:17:19.367Z,35.05
2022-08-14T20:20:30.872Z,34.69
2022-08-14T20:23:43.615Z,34.78
2022-08-14T20:27:34.103Z,34.89
2022-08-14T20:30:37.443Z,35.42
2022-08-14T20:33:48.652Z,35.35
2022-08-14T20:37:00.836Z,35.53
2022-08-14T20:40:23.329Z,35.18
2022-08-14T20:43:52.868Z,35.10
2022-08-14T20:47:00.965Z,35.33
2022-08-14T20:50:21.237Z,35.50
2022-08-14T20:53:28.940Z,35.51
2022-08-14T20:56:41.683Z,36.01
2022-08-14T20:59:57.359Z,35.65
2022-08-14T21:02:59.477Z,35.93
2022-08-14T21:06:17.264Z,35.85
2022-08-14T21:10:03.356Z,35.93
2022-08-14T21:12:55.559Z,35.81
2022-08-14T21:16:33.442Z,36.08
2022-08-14T21:19:33.032Z,35.81
2022-08-14T21:22:37.586Z,36.26
2022-08-14T21:25:42.537Z,35.94
2022-08-14T21:28:46.003Z,36.39
2022-08-14T21:31:55.670Z,36.53
2022-08-14T21:35:16.217Z,36.64
2022-08-14T21:38:20.517Z,36.15
2022-08-14T21:41:42.386Z,36.62
2022-08-14T21:44:53.450Z,36.34
2022-08-14T21:48:02.304Z,36.32
2022-08-14T21:51:54.917Z,36.50
2022-08-14T21:54:49.803Z,36.91
2022-08-14T21:58:51.713Z,36.51
2022-08-14T22:01:23.853Z,36.68
2022-08-14T22:04:33.653Z,36.59
2022-08-14T22:07:38.894Z,36.61
2022-08-14T22:10:44.755Z,37.14
2022-08-14T22:13:48.869Z,36.81
2022-08-14T22:17:02.257Z,36.79
2022-08-14T22:20:16.554Z,36.91
2022-08-14T22:23:18.736Z,37.11
2022-08-14T22:26:21.791Z,37.01
2022-08-14T22:29:23.940Z,36.98
2022-08-14T22:32:55.948Z,37.10
2022-08-14T22:35:56.522Z,36.92
2022-08-14T22:38:58.495Z,37.24
2022-08-14T22:42:02.080Z,37.43
2022-08-14T22:45:22.745Z,37.07
2022-08-14T22:48:25.169Z,37.32
2022-08-14T22:51:32.404Z,37.35
2022-08-14T22:54:51.878Z,37.52
2022-08-14T22:57:55.376Z,37.58
2022-08-14T23:01:01.090Z,37.46
2022-08-14T23:04:04.530Z,37.43
2022-08-14T23:07:21.998Z,37.36
2022-08-14T23:10:31.930Z,37.49
2022-08-14T23:13:39.703Z,37.40
2022-08-14T23:16:42.513Z,37.72
2022-08-14T23:19:44.764Z,37.54
2022-08-14T23:22:51.203Z,37.58
2022-08-14T23:25:59.387Z,37.64
2022-08-14T23:29:03.361Z,37.66
2022-08-14T23:32:06.170Z,37.40
2022-08-14T23:35:27.140Z,37.58
2022-08-14T23:38:30.504Z,37.72
2022-08-14T23:41:46.452Z,37.60
2022-08-14T23:44:55.699Z,37.86
2022-08-14T23:47:59.484Z,37.66
2022-08-14T23:51:02.953Z,37.94
2022-08-14T23:54:05.591Z,37.77
2022-08-14T23:57:30.748Z,37.95
